createdAt,value
2018-04-10T00:00:43.903Z,15.59
2018-04-10T00:01:43.865Z,15.64
2018-04-10T00:02:43.908Z,15.62
2018-04-10T00:03:43.859Z,15.64
2018-04-10T00:04:43.840Z,15.62
2018-04-10T00:05:43.843Z,15.62
2018-04-10T00:06:43.834Z,15.62
2018-04-10T00:07:43.850Z,15.67
2018-04-10T00:08:43.809Z,15.67
2018-04-10T00:09:43.819Z,15.62
2018-04-10T00:10:43.797Z,15.57
2018-04-10T00:11:43.770Z,15.59
2018-04-10T00:12:43.810Z,15.54
2018-04-10T00:13:43.790Z,15.53
2018-04-10T00:14:43.760Z,15.53
2018-04-10T00:15:43.740Z,15.57
2018-04-10T00:16:43.761Z,15.54
2018-04-10T00:17:43.772Z,15.53
2018-04-10T00:18:43.724Z,15.51
2018-04-10T00:19:43.702Z,15.44
2018-04-10T00:20:43.717Z,15.51
2018-04-10T00:21:43.702Z,15.44
2018-04-10T00:22:43.674Z,15.49
2018-04-10T00:23:43.691Z,15.47
2018-04-10T00:24:43.661Z,15.50
2018-04-10T00:25:43.664Z,15.47
2018-04-10T00:26:43.650Z,15.49
2018-04-10T00:27:43.675Z,15.38
2018-04-10T00:28:43.634Z,15.36
2018-04-10T00:29:43.626Z,15.51
2018-04-10T00:30:43.613Z,15.47
2018-04-10T00:31:43.599Z,15.46
2018-04-10T00:32:43.591Z,15.44
2018-04-10T00:33:43.612Z,15.51
2018-04-10T00:34:43.638Z,15.43
2018-04-10T00:35:43.569Z,15.43
2018-04-10T00:36:43.542Z,15.51
2018-04-10T00:37:43.538Z,15.51
2018-04-10T00:38:43.548Z,15.53
2018-04-10T00:39:43.529Z,15.50
2018-04-10T00:40:43.533Z,15.54
2018-04-10T00:41:43.517Z,15.49
2018-04-10T00:42:43.506Z,15.49
2018-04-10T00:43:43.500Z,15.50
2018-04-10T00:44:43.488Z,15.43
2018-04-10T00:45:43.534Z,15.51
2018-04-10T00:46:43.468Z,15.51
2018-04-10T00:47:43.447Z,15.50
2018-04-10T00:48:43.436Z,15.49
2018-04-10T00:49:43.423Z,15.49
2018-04-10T00:50:43.405Z,15.56
2018-04-10T00:51:43.430Z,15.56
2018-04-10T00:52:43.734Z,15.51
2018-04-10T00:53:43.404Z,15.53
2018-04-10T00:54:43.377Z,15.50
2018-04-10T00:55:43.457Z,15.43
2018-04-10T00:56:43.365Z,15.35
2018-04-10T00:57:43.357Z,15.38
2018-04-10T00:58:43.383Z,15.38
2018-04-10T00:59:43.395Z,15.36
2018-04-10T01:00:43.317Z,15.29
2018-04-10T01:01:43.327Z,15.27
2018-04-10T01:02:43.665Z,15.28
2018-04-10T01:03:43.332Z,15.14
2018-04-10T01:04:43.296Z,15.25
2018-04-10T01:05:43.283Z,15.27
2018-04-10T01:06:43.266Z,15.23
2018-04-10T01:07:43.272Z,15.34
2018-04-10T01:08:43.318Z,15.31
2018-04-10T01:09:43.233Z,15.35
2018-04-10T01:10:43.241Z,15.38
2018-04-10T01:11:43.244Z,15.35
2018-04-10T01:12:43.222Z,15.36
2018-04-10T01:13:43.210Z,15.35
2018-04-10T01:14:43.239Z,15.17
2018-04-10T01:15:43.222Z,15.14
2018-04-10T01:16:43.189Z,15.29
2018-04-10T01:17:43.166Z,15.28
2018-04-10T01:18:43.168Z,15.29
2018-04-10T01:19:43.199Z,15.32
2018-04-10T01:20:43.146Z,15.31
2018-04-10T01:21:43.147Z,15.31
2018-04-10T01:22:43.129Z,15.38
2018-04-10T01:23:43.115Z,15.34
2018-04-10T01:24:43.116Z,15.36
2018-04-10T01:25:43.117Z,15.35
2018-04-10T01:26:43.090Z,15.27
2018-04-10T01:27:43.076Z,15.28
2018-04-10T01:28:43.072Z,15.29
2018-04-10T01:29:43.085Z,15.28
2018-04-10T01:30:43.052Z,15.31
2018-04-10T01:31:43.048Z,15.32
2018-04-10T01:32:43.038Z,15.32
2018-04-10T01:33:43.018Z,15.32
2018-04-10T01:34:43.015Z,15.31
2018-04-10T01:35:42.999Z,15.31
2018-04-10T01:36:42.999Z,15.31
2018-04-10T01:37:42.985Z,15.31
2018-04-10T01:38:42.991Z,15.35
2018-04-10T01:39:43.205Z,15.31
2018-04-10T01:40:42.958Z,15.27
2018-04-10T01:41:42.953Z,15.35
2018-04-10T01:42:42.931Z,15.21
2018-04-10T01:43:42.945Z,15.23
2018-04-10T01:44:42.915Z,15.21
2018-04-10T01:45:43.268Z,15.25
2018-04-10T01:46:42.900Z,15.25
2018-04-10T01:47:42.898Z,15.21
2018-04-10T01:48:42.890Z,15.29
2018-04-10T01:49:42.873Z,15.31
2018-04-10T01:50:42.872Z,15.32
2018-04-10T01:51:42.856Z,15.27
2018-04-10T01:52:42.834Z,15.28
2018-04-10T01:53:42.843Z,15.32
2018-04-10T01:54:42.842Z,15.13
2018-04-10T01:55:45.152Z,15.28
2018-04-10T01:56:42.838Z,15.21
2018-04-10T01:57:42.836Z,15.19
2018-04-10T01:58:42.797Z,15.17
2018-04-10T01:59:42.777Z,15.17
2018-04-10T02:00:42.770Z,15.13
2018-04-10T02:01:42.849Z,15.13
2018-04-10T02:02:42.757Z,14.99
2018-04-10T02:03:42.751Z,14.98
2018-04-10T02:04:42.729Z,15.09
2018-04-10T02:05:42.718Z,15.02
2018-04-10T02:06:42.714Z,15.07
2018-04-10T02:07:42.783Z,15.03
2018-04-10T02:08:42.696Z,15.07
2018-04-10T02:09:42.683Z,15.06
2018-04-10T02:10:42.723Z,15.10
2018-04-10T02:11:42.674Z,15.01
2018-04-10T02:12:42.662Z,14.98
2018-04-10T02:13:42.645Z,14.96
2018-04-10T02:14:42.649Z,14.94
2018-04-10T02:15:42.638Z,14.95
2018-04-10T02:16:42.613Z,14.96
2018-04-10T02:17:42.631Z,14.95
2018-04-10T02:18:42.622Z,14.98
2018-04-10T02:19:42.591Z,14.94
2018-04-10T02:20:42.564Z,14.96
2018-04-10T02:21:42.612Z,15.02
2018-04-10T02:22:42.551Z,15.09
2018-04-10T02:23:42.556Z,15.07
2018-04-10T02:24:42.562Z,15.07
2018-04-10T02:25:42.534Z,15.13
2018-04-10T02:26:42.533Z,15.11
2018-04-10T02:27:42.501Z,15.01
2018-04-10T02:28:42.536Z,14.98
2018-04-10T02:29:42.487Z,14.95
2018-04-10T02:30:42.516Z,14.94
2018-04-10T02:31:42.467Z,14.89
2018-04-10T02:32:42.526Z,14.83
2018-04-10T02:33:42.468Z,14.83
2018-04-10T02:34:42.440Z,14.89
2018-04-10T02:35:42.453Z,14.88
2018-04-10T02:36:42.445Z,14.86
2018-04-10T02:37:42.451Z,14.92
2018-04-10T02:38:42.411Z,14.88
2018-04-10T02:39:42.384Z,14.78
2018-04-10T02:40:42.385Z,14.91
2018-04-10T02:41:42.392Z,14.86
2018-04-10T02:42:42.401Z,14.81
2018-04-10T02:43:42.342Z,14.78
2018-04-10T02:44:42.416Z,14.78
2018-04-10T02:45:42.341Z,14.75
2018-04-10T02:46:42.326Z,14.77
2018-04-10T02:47:42.304Z,14.70
2018-04-10T02:48:42.307Z,14.72
2018-04-10T02:49:42.284Z,14.65
2018-04-10T02:50:42.292Z,14.73
2018-04-10T02:51:42.269Z,14.78
2018-04-10T02:52:42.282Z,14.73
2018-04-10T02:53:42.257Z,14.81
2018-04-10T02:54:42.249Z,14.84
2018-04-10T02:55:42.304Z,14.75
2018-04-10T02:56:42.245Z,14.69
2018-04-10T02:57:42.223Z,14.60
2018-04-10T02:58:42.212Z,14.57
2018-04-10T02:59:42.189Z,14.47
2018-04-10T03:00:42.204Z,14.45
2018-04-10T03:01:42.223Z,14.37
2018-04-10T03:02:42.207Z,14.35
2018-04-10T03:03:42.168Z,14.39
2018-04-10T03:04:42.171Z,14.33
2018-04-10T03:05:42.147Z,14.45
2018-04-10T03:06:42.146Z,14.28
2018-04-10T03:07:42.127Z,14.28
2018-04-10T03:08:42.117Z,14.32
2018-04-10T03:09:42.202Z,14.27
2018-04-10T03:10:42.113Z,14.29
2018-04-10T03:11:42.092Z,14.33
2018-04-10T03:12:42.063Z,14.33
2018-04-10T03:13:42.070Z,14.33
2018-04-10T03:14:42.052Z,14.27
2018-04-10T03:15:42.057Z,14.21
2018-04-10T03:16:42.037Z,14.20
2018-04-10T03:17:42.040Z,14.21
2018-04-10T03:18:42.010Z,14.24
2018-04-10T03:19:42.024Z,14.24
2018-04-10T03:20:42.062Z,14.20
2018-04-10T03:21:42.003Z,14.17
2018-04-10T03:22:41.988Z,14.18
2018-04-10T03:23:41.972Z,14.17
2018-04-10T03:24:41.938Z,14.21
2018-04-10T03:25:41.951Z,14.09
2018-04-10T03:26:41.986Z,13.85
2018-04-10T03:27:41.928Z,13.78
2018-04-10T03:28:41.907Z,13.75
2018-04-10T03:29:41.897Z,13.69
2018-04-10T03:30:41.890Z,13.55
2018-04-10T03:31:41.875Z,13.52
2018-04-10T03:32:41.883Z,13.52
2018-04-10T03:33:41.855Z,13.48
2018-04-10T03:34:41.838Z,13.49
2018-04-10T03:35:42.058Z,13.49
2018-04-10T03:36:41.875Z,13.54
2018-04-10T03:37:41.811Z,13.52
2018-04-10T03:38:41.827Z,13.57
2018-04-10T03:39:41.790Z,13.52
2018-04-10T03:40:41.814Z,13.55
2018-04-10T03:41:41.837Z,13.52
2018-04-10T03:42:41.778Z,13.52
2018-04-10T03:43:41.770Z,13.45
2018-04-10T03:44:41.773Z,13.45
2018-04-10T03:45:41.743Z,13.41
2018-04-10T03:46:41.754Z,13.38
2018-04-10T03:47:41.728Z,13.25
2018-04-10T03:48:41.710Z,13.26
2018-04-10T03:49:41.722Z,13.14
2018-04-10T03:50:41.738Z,13.22
2018-04-10T03:51:41.666Z,13.14
2018-04-10T03:52:41.671Z,13.15
2018-04-10T03:53:41.648Z,13.08
2018-04-10T03:54:41.633Z,13.07
2018-04-10T03:55:41.659Z,13.14
2018-04-10T03:56:41.657Z,13.19
2018-04-10T03:57:41.664Z,13.15
2018-04-10T03:58:41.612Z,13.36
2018-04-10T03:59:41.609Z,13.44
2018-04-10T04:00:41.609Z,13.39
2018-04-10T04:01:41.553Z,13.46
2018-04-10T04:02:41.611Z,13.51
2018-04-10T04:03:41.560Z,13.51
2018-04-10T04:04:41.530Z,13.57
2018-04-10T04:05:41.671Z,13.49
2018-04-10T04:06:41.530Z,13.64
2018-04-10T04:07:41.508Z,13.49
2018-04-10T04:08:41.518Z,13.54
2018-04-10T04:09:41.476Z,13.63
2018-04-10T04:10:41.484Z,13.52
2018-04-10T04:11:41.458Z,13.63
2018-04-10T04:12:41.443Z,13.64
2018-04-10T04:13:41.477Z,13.60
2018-04-10T04:14:41.425Z,13.66
2018-04-10T04:15:41.430Z,13.64
2018-04-10T04:16:41.391Z,13.57
2018-04-10T04:17:41.394Z,13.63
2018-04-10T04:18:41.439Z,13.66
2018-04-10T04:19:41.369Z,13.64
2018-04-10T04:20:41.389Z,13.57
2018-04-10T04:21:41.338Z,13.62
2018-04-10T04:22:41.351Z,13.66
2018-04-10T04:23:41.324Z,13.66
2018-04-10T04:24:41.363Z,13.67
2018-04-10T04:25:41.361Z,13.78
2018-04-10T04:26:41.291Z,13.77
2018-04-10T04:27:41.279Z,13.81
2018-04-10T04:28:41.258Z,13.79
2018-04-10T04:29:41.267Z,13.75
2018-04-10T04:30:41.306Z,13.70
2018-04-10T04:31:41.251Z,13.73
2018-04-10T04:32:41.225Z,13.67
2018-04-10T04:33:41.216Z,13.77
2018-04-10T04:34:41.205Z,13.81
2018-04-10T04:35:41.308Z,13.77
2018-04-10T04:36:41.170Z,13.82
2018-04-10T04:37:41.186Z,13.88
2018-04-10T04:38:41.162Z,13.81
2018-04-10T04:39:41.140Z,13.92
2018-04-10T04:40:41.153Z,13.78
2018-04-10T04:41:41.193Z,13.88
2018-04-10T04:42:41.110Z,13.92
2018-04-10T04:43:41.111Z,13.92
2018-04-10T04:44:41.247Z,13.97
2018-04-10T04:45:41.088Z,13.89
2018-04-10T04:46:41.093Z,13.81
2018-04-10T04:47:41.074Z,13.82
2018-04-10T04:48:41.056Z,13.71
2018-04-10T04:49:41.034Z,13.77
2018-04-10T04:50:41.034Z,13.81
2018-04-10T04:51:41.027Z,13.73
2018-04-10T04:52:41.031Z,13.79
2018-04-10T04:53:41.000Z,13.77
2018-04-10T04:54:41.029Z,13.82
2018-04-10T04:55:41.000Z,13.85
2018-04-10T04:56:40.959Z,13.87
2018-04-10T04:57:40.958Z,13.79
2018-04-10T04:58:40.939Z,13.87
2018-04-10T04:59:40.938Z,13.95
2018-04-10T05:00:40.976Z,13.95
2018-04-10T05:01:40.920Z,13.96
2018-04-10T05:02:40.899Z,14.03
2018-04-10T05:03:40.887Z,14.09
2018-04-10T05:04:40.883Z,14.14
2018-04-10T05:05:40.875Z,14.12
2018-04-10T05:06:40.887Z,14.06
2018-04-10T05:07:40.860Z,14.03
2018-04-10T05:08:40.848Z,14.02
2018-04-10T05:09:40.853Z,14.02
2018-04-10T05:10:40.842Z,14.03
2018-04-10T05:11:40.885Z,14.18
2018-04-10T05:12:40.804Z,14.03
2018-04-10T05:13:40.787Z,14.10
2018-04-10T05:14:40.777Z,14.10
2018-04-10T05:15:40.771Z,14.12
2018-04-10T05:16:40.796Z,14.18
2018-04-10T05:17:40.783Z,14.14
2018-04-10T05:18:40.772Z,14.07
2018-04-10T05:19:40.763Z,14.09
2018-04-10T05:20:40.730Z,14.12
2018-04-10T05:21:40.697Z,14.15
2018-04-10T05:22:40.700Z,14.17
2018-04-10T05:23:40.692Z,14.14
2018-04-10T05:24:40.707Z,14.07
2018-04-10T05:25:40.661Z,14.10
2018-04-10T05:26:40.655Z,14.14
2018-04-10T05:27:40.651Z,14.12
2018-04-10T05:28:40.625Z,14.12
2018-04-10T05:29:40.677Z,14.15
2018-04-10T05:30:40.605Z,14.10
2018-04-10T05:31:40.605Z,14.12
2018-04-10T05:32:40.606Z,14.17
2018-04-10T05:33:40.593Z,14.21
2018-04-10T05:34:40.590Z,14.17
2018-04-10T05:35:40.848Z,14.17
2018-04-10T05:36:40.541Z,14.27
2018-04-10T05:37:40.532Z,14.35
2018-04-10T05:38:40.527Z,14.18
2018-04-10T05:39:40.534Z,14.32
2018-04-10T05:40:40.514Z,14.32
2018-04-10T05:41:40.513Z,14.35
2018-04-10T05:42:40.502Z,14.35
2018-04-10T05:43:40.474Z,14.40
2018-04-10T05:44:40.497Z,14.45
2018-04-10T05:45:40.471Z,14.42
2018-04-10T05:46:40.449Z,14.50
2018-04-10T05:47:40.459Z,14.57
2018-04-10T05:48:40.429Z,14.51
2018-04-10T05:49:40.476Z,14.60
2018-04-10T05:50:40.423Z,14.61
2018-04-10T05:51:40.411Z,14.62
2018-04-10T05:52:40.386Z,14.60
2018-04-10T05:53:40.373Z,14.65
2018-04-10T05:54:40.374Z,14.70
2018-04-10T05:55:40.399Z,14.62
2018-04-10T05:56:40.362Z,14.62
2018-04-10T05:57:40.329Z,14.57
2018-04-10T05:58:40.361Z,14.62
2018-04-10T05:59:40.330Z,14.68
2018-04-10T06:00:40.341Z,14.62
2018-04-10T06:01:40.296Z,14.65
2018-04-10T06:02:40.299Z,14.68
2018-04-10T06:03:40.289Z,14.69
2018-04-10T06:04:40.288Z,14.68
2018-04-10T06:05:40.264Z,14.61
2018-04-10T06:06:40.243Z,14.62
2018-04-10T06:07:40.236Z,14.61
2018-04-10T06:08:40.242Z,14.69
2018-04-10T06:09:40.262Z,14.70
2018-04-10T06:10:40.235Z,14.69
2018-04-10T06:11:40.214Z,14.62
2018-04-10T06:12:40.244Z,14.70
2018-04-10T06:13:40.204Z,14.80
2018-04-10T06:14:40.183Z,14.77
2018-04-10T06:15:40.168Z,14.73
2018-04-10T06:16:40.152Z,14.65
2018-04-10T06:17:40.138Z,14.62
2018-04-10T06:18:40.151Z,14.64
2018-04-10T06:19:40.134Z,14.72
2018-04-10T06:20:40.123Z,14.77
2018-04-10T06:21:40.121Z,14.89
2018-04-10T06:22:40.118Z,14.91
2018-04-10T06:23:40.097Z,14.89
2018-04-10T06:24:40.136Z,15.01
2018-04-10T06:25:40.092Z,15.01
2018-04-10T06:26:40.067Z,15.16
2018-04-10T06:27:40.071Z,15.09
2018-04-10T06:28:40.051Z,15.17
2018-04-10T06:29:40.065Z,15.27
2018-04-10T06:30:40.018Z,15.29
2018-04-10T06:31:40.012Z,15.27
2018-04-10T06:32:40.063Z,15.31
2018-04-10T06:33:39.993Z,15.23
2018-04-10T06:34:40.006Z,15.32
2018-04-10T06:35:39.982Z,15.32
2018-04-10T06:36:39.987Z,15.36
2018-04-10T06:37:39.954Z,15.49
2018-04-10T06:38:40.023Z,15.39
2018-04-10T06:39:39.938Z,15.49
2018-04-10T06:40:39.941Z,15.51
2018-04-10T06:41:39.920Z,15.57
2018-04-10T06:42:39.924Z,15.53
2018-04-10T06:43:39.921Z,15.56
2018-04-10T06:44:39.935Z,15.57
2018-04-10T06:45:39.887Z,15.54
2018-04-10T06:46:39.889Z,15.57
2018-04-10T06:47:39.921Z,15.46
2018-04-10T06:48:39.870Z,15.50
2018-04-10T06:49:39.888Z,15.47
2018-04-10T06:50:39.848Z,15.46
2018-04-10T06:51:39.833Z,15.38
2018-04-10T06:52:39.822Z,15.38
2018-04-10T06:53:39.833Z,15.35
2018-04-10T06:54:39.853Z,15.46
2018-04-10T06:55:39.856Z,15.47
2018-04-10T06:56:39.784Z,15.44
2018-04-10T06:57:39.796Z,15.41
2018-04-10T06:58:39.788Z,15.49
2018-04-10T06:59:39.784Z,15.53
2018-04-10T07:00:39.751Z,15.49
2018-04-10T07:01:39.846Z,15.59
2018-04-10T07:02:39.745Z,15.67
2018-04-10T07:03:39.744Z,15.64
2018-04-10T07:04:39.719Z,15.68
2018-04-10T07:05:39.729Z,15.82
2018-04-10T07:06:39.730Z,15.80
2018-04-10T07:07:39.721Z,15.92
2018-04-10T07:08:39.689Z,15.89
2018-04-10T07:09:39.676Z,15.94
2018-04-10T07:10:39.676Z,16.04
2018-04-10T07:11:39.678Z,16.09
2018-04-10T07:12:39.703Z,16.12
2018-04-10T07:13:39.644Z,16.25
2018-04-10T07:14:39.665Z,16.30
2018-04-10T07:15:39.647Z,16.28
2018-04-10T07:16:39.626Z,16.28
2018-04-10T07:17:39.614Z,16.30
2018-04-10T07:18:39.629Z,16.21
2018-04-10T07:19:39.597Z,16.24
2018-04-10T07:20:39.615Z,16.33
2018-04-10T07:21:39.600Z,16.24
2018-04-10T07:22:39.589Z,16.25
2018-04-10T07:23:39.569Z,16.28
2018-04-10T07:24:39.579Z,16.35
2018-04-10T07:25:39.565Z,16.39
2018-04-10T07:26:39.547Z,16.33
2018-04-10T07:27:39.550Z,16.33
2018-04-10T07:28:39.532Z,16.34
2018-04-10T07:29:39.534Z,16.31
2018-04-10T07:30:39.528Z,16.35
2018-04-10T07:31:39.518Z,16.46
2018-04-10T07:32:39.502Z,16.43
2018-04-10T07:33:39.484Z,16.60
2018-04-10T07:34:39.496Z,16.64
2018-04-10T07:35:39.484Z,16.67
2018-04-10T07:36:39.502Z,16.83
2018-04-10T07:37:39.462Z,16.83
2018-04-10T07:38:39.449Z,16.82
2018-04-10T07:39:39.503Z,16.98
2018-04-10T07:40:39.470Z,17.01
2018-04-10T07:41:39.797Z,17.01
2018-04-10T07:42:39.422Z,17.06
2018-04-10T07:43:39.430Z,16.98
2018-04-10T07:44:39.420Z,17.01
2018-04-10T07:45:39.413Z,17.03
2018-04-10T07:46:39.425Z,17.06
2018-04-10T07:47:39.405Z,17.08
2018-04-10T07:48:39.380Z,16.98
2018-04-10T07:49:39.409Z,17.00
2018-04-10T07:50:39.367Z,16.98
2018-04-10T07:51:39.377Z,17.01
2018-04-10T07:52:39.430Z,16.93
2018-04-10T07:53:39.374Z,16.93
2018-04-10T07:54:39.351Z,16.83
2018-04-10T07:55:39.359Z,16.94
2018-04-10T07:56:39.333Z,16.97
2018-04-10T07:57:39.329Z,16.86
2018-04-10T07:58:39.367Z,16.96
2018-04-10T07:59:39.352Z,16.94
2018-04-10T08:00:39.323Z,16.91
2018-04-10T08:01:39.301Z,16.85
2018-04-10T08:02:39.331Z,16.88
2018-04-10T08:03:39.352Z,16.83
2018-04-10T08:04:39.272Z,16.70
2018-04-10T08:05:39.269Z,16.71
2018-04-10T08:06:39.251Z,16.68
2018-04-10T08:07:39.254Z,16.64
2018-04-10T08:08:39.240Z,16.67
2018-04-10T08:09:39.265Z,16.67
2018-04-10T08:10:39.242Z,16.63
2018-04-10T08:11:39.223Z,16.66
2018-04-10T08:12:39.222Z,16.61
2018-04-10T08:13:39.230Z,16.67
2018-04-10T08:14:39.200Z,16.70
2018-04-10T08:15:39.194Z,16.66
2018-04-10T08:16:39.195Z,16.66
2018-04-10T08:17:39.178Z,16.71
2018-04-10T08:18:39.192Z,16.70
2018-04-10T08:19:39.174Z,16.67
2018-04-10T08:20:39.156Z,16.64
2018-04-10T08:21:39.140Z,16.67
2018-04-10T08:22:39.134Z,16.76
2018-04-10T08:23:39.162Z,16.71
2018-04-10T08:24:39.124Z,16.71
2018-04-10T08:25:39.189Z,16.68
2018-04-10T08:26:39.115Z,16.70
2018-04-10T08:27:39.099Z,16.70
2018-04-10T08:28:39.100Z,16.70
2018-04-10T08:29:39.091Z,16.75
2018-04-10T08:30:39.090Z,16.75
2018-04-10T08:31:39.087Z,16.82
2018-04-10T08:32:39.073Z,16.76
2018-04-10T08:33:39.064Z,16.85
2018-04-10T08:34:39.045Z,16.75
2018-04-10T08:35:39.043Z,16.76
2018-04-10T08:36:39.058Z,16.85
2018-04-10T08:37:39.028Z,16.81
2018-04-10T08:38:39.056Z,16.79
2018-04-10T08:39:39.009Z,16.76
2018-04-10T08:40:39.016Z,16.81
2018-04-10T08:41:39.000Z,16.79
2018-04-10T08:42:39.004Z,16.93
2018-04-10T08:43:38.981Z,16.97
2018-04-10T08:44:38.973Z,16.96
2018-04-10T08:45:38.992Z,17.03
2018-04-10T08:46:38.960Z,17.06
2018-04-10T08:47:38.950Z,17.06
2018-04-10T08:48:38.986Z,17.15
2018-04-10T08:49:38.999Z,17.21
2018-04-10T08:50:38.974Z,17.12
2018-04-10T08:51:38.922Z,17.23
2018-04-10T08:52:38.940Z,17.38
2018-04-10T08:53:38.926Z,17.48
2018-04-10T08:54:39.588Z,17.44
2018-04-10T08:55:39.885Z,17.49
2018-04-10T08:56:39.603Z,17.43
2018-04-10T08:57:39.673Z,17.51
2018-04-10T08:58:40.358Z,17.48
2018-04-10T08:59:39.589Z,17.46
2018-04-10T09:00:39.568Z,17.62
2018-04-10T09:01:38.878Z,17.56
2018-04-10T09:02:38.871Z,17.55
2018-04-10T09:03:38.871Z,17.58
2018-04-10T09:04:38.854Z,17.55
2018-04-10T09:05:38.858Z,17.56
2018-04-10T09:06:38.894Z,17.58
2018-04-10T09:07:38.847Z,17.59
2018-04-10T09:08:38.839Z,17.68
2018-04-10T09:09:38.826Z,17.70
2018-04-10T09:10:38.861Z,17.66
2018-04-10T09:11:38.823Z,17.71
2018-04-10T09:12:38.883Z,17.72
2018-04-10T09:13:38.797Z,17.71
2018-04-10T09:14:38.826Z,17.75
2018-04-10T09:15:38.837Z,17.77
2018-04-10T09:16:38.816Z,17.75
2018-04-10T09:17:38.784Z,17.77
2018-04-10T09:18:38.789Z,17.78
2018-04-10T09:19:38.776Z,17.95
2018-04-10T09:20:38.845Z,18.07
2018-04-10T09:21:38.778Z,18.14
2018-04-10T09:22:38.776Z,18.20
2018-04-10T09:23:38.762Z,18.20
2018-04-10T09:24:38.773Z,18.25
2018-04-10T09:25:38.888Z,18.35
2018-04-10T09:26:38.787Z,18.36
2018-04-10T09:27:38.805Z,18.39
2018-04-10T09:28:38.722Z,18.41
2018-04-10T09:29:38.718Z,18.45
2018-04-10T09:30:38.734Z,18.51
2018-04-10T09:31:38.729Z,18.45
2018-04-10T09:32:38.729Z,18.52
2018-04-10T09:33:38.696Z,18.58
2018-04-10T09:34:38.707Z,18.57
2018-04-10T09:35:38.735Z,18.75
2018-04-10T09:36:38.700Z,18.73
2018-04-10T09:37:38.722Z,18.91
2018-04-10T09:38:38.714Z,19.00
2018-04-10T09:39:38.703Z,19.07
2018-04-10T09:40:38.675Z,19.10
2018-04-10T09:41:38.701Z,19.13
2018-04-10T09:42:38.671Z,19.02
2018-04-10T09:43:38.717Z,19.04
2018-04-10T09:44:38.669Z,18.99
2018-04-10T09:45:38.686Z,18.90
2018-04-10T09:46:38.671Z,18.94
2018-04-10T09:47:38.682Z,19.04
2018-04-10T09:48:38.647Z,18.99
2018-04-10T09:49:38.683Z,19.10
2018-04-10T09:50:38.775Z,19.18
2018-04-10T09:51:38.661Z,19.07
2018-04-10T09:52:38.636Z,19.21
2018-04-10T09:53:38.644Z,19.18
2018-04-10T09:54:38.642Z,19.21
2018-04-10T09:55:38.887Z,19.14
2018-04-10T09:56:38.635Z,19.22
2018-04-10T09:57:38.638Z,19.14
2018-04-10T09:58:38.653Z,19.31
2018-04-10T09:59:38.655Z,19.14
2018-04-10T10:00:38.704Z,19.16
2018-04-10T10:01:38.632Z,19.25
2018-04-10T10:02:38.628Z,19.21
2018-04-10T10:03:38.640Z,19.25
2018-04-10T10:04:38.623Z,19.22
2018-04-10T10:05:38.629Z,19.32
2018-04-10T10:06:38.682Z,19.44
2018-04-10T10:07:38.615Z,19.50
2018-04-10T10:08:38.635Z,19.73
2018-04-10T10:09:38.641Z,19.88
2018-04-10T10:10:38.614Z,20.13
2018-04-10T10:11:38.606Z,20.29
2018-04-10T10:12:38.615Z,20.17
2018-04-10T10:13:38.603Z,20.16
2018-04-10T10:14:38.613Z,20.06
2018-04-10T10:15:38.614Z,19.96
2018-04-10T10:16:39.356Z,20.06
2018-04-10T10:17:38.620Z,20.08
2018-04-10T10:18:38.606Z,20.21
2018-04-10T10:19:38.628Z,20.08
2018-04-10T10:20:38.610Z,20.20
2018-04-10T10:21:38.611Z,20.35
2018-04-10T10:22:38.610Z,20.24
2018-04-10T10:23:38.603Z,20.31
2018-04-10T10:24:38.657Z,20.32
2018-04-10T10:25:38.600Z,20.36
2018-04-10T10:26:38.614Z,20.32
2018-04-10T10:27:38.610Z,20.32
2018-04-10T10:28:38.603Z,20.32
2018-04-10T10:29:38.593Z,20.35
2018-04-10T10:30:38.627Z,20.33
2018-04-10T10:31:38.603Z,20.52
2018-04-10T10:32:38.623Z,20.57
2018-04-10T10:33:38.590Z,20.62
2018-04-10T10:34:38.590Z,20.72
2018-04-10T10:35:38.898Z,20.72
2018-04-10T10:36:38.599Z,20.88
2018-04-10T10:37:38.595Z,20.98
2018-04-10T10:38:38.595Z,20.94
2018-04-10T10:39:38.616Z,20.76
2018-04-10T10:40:38.612Z,20.85
2018-04-10T10:41:38.657Z,20.91
2018-04-10T10:42:38.595Z,20.98
2018-04-10T10:43:38.602Z,20.95
2018-04-10T10:44:38.614Z,20.94
2018-04-10T10:45:38.589Z,21.04
2018-04-10T10:46:38.598Z,21.10
2018-04-10T10:47:38.608Z,21.24
2018-04-10T10:48:38.596Z,21.27
2018-04-10T10:49:38.586Z,21.40
2018-04-10T10:50:38.585Z,21.50
2018-04-10T10:51:38.583Z,21.47
2018-04-10T10:52:38.967Z,21.64
2018-04-10T10:53:38.593Z,21.50
2018-04-10T10:54:38.589Z,21.52
2018-04-10T10:55:38.600Z,21.62
2018-04-10T10:56:38.601Z,21.69
2018-04-10T10:57:38.592Z,21.82
2018-04-10T10:58:38.666Z,21.96
2018-04-10T10:59:38.585Z,21.75
2018-04-10T11:00:38.599Z,21.74
2018-04-10T11:01:38.589Z,21.61
2018-04-10T11:02:38.571Z,21.53
2018-04-10T11:03:38.580Z,21.67
2018-04-10T11:04:38.603Z,21.72
2018-04-10T11:05:38.572Z,21.79
2018-04-10T11:06:38.578Z,21.98
2018-04-10T11:07:38.579Z,21.92
2018-04-10T11:08:38.576Z,21.74
2018-04-10T11:09:38.649Z,21.64
2018-04-10T11:10:38.572Z,21.46
2018-04-10T11:11:38.571Z,21.46
2018-04-10T11:12:38.560Z,21.25
2018-04-10T11:13:38.603Z,21.35
2018-04-10T11:14:38.561Z,21.37
2018-04-10T11:15:38.613Z,21.34
2018-04-10T11:16:38.555Z,21.53
2018-04-10T11:17:38.572Z,21.61
2018-04-10T11:18:38.556Z,21.77
2018-04-10T11:19:38.560Z,21.79
2018-04-10T11:20:40.024Z,21.84
2018-04-10T11:21:38.565Z,21.91
2018-04-10T11:22:38.556Z,21.99
2018-04-10T11:23:38.551Z,21.88
2018-04-10T11:24:38.561Z,21.96
2018-04-10T11:25:38.563Z,22.12
2018-04-10T11:26:38.561Z,22.24
2018-04-10T11:27:38.567Z,22.42
2018-04-10T11:28:38.546Z,22.49
2018-04-10T11:29:38.553Z,22.52
2018-04-10T11:30:38.572Z,22.52
2018-04-10T11:31:38.571Z,22.45
2018-04-10T11:32:38.546Z,22.33
2018-04-10T11:33:38.553Z,22.37
2018-04-10T11:34:38.547Z,22.51
2018-04-10T11:35:38.551Z,22.65
2018-04-10T11:36:38.546Z,22.68
2018-04-10T11:37:38.565Z,22.70
2018-04-10T11:38:38.544Z,22.64
2018-04-10T11:39:38.557Z,22.65
2018-04-10T11:40:38.594Z,22.72
2018-04-10T11:41:38.548Z,22.73
2018-04-10T11:42:38.544Z,22.90
2018-04-10T11:43:38.553Z,22.92
2018-04-10T11:44:38.556Z,23.01
2018-04-10T11:45:38.559Z,22.90
2018-04-10T11:46:38.564Z,23.07
2018-04-10T11:47:38.530Z,23.22
2018-04-10T11:48:38.560Z,23.12
2018-04-10T11:49:38.540Z,23.04
2018-04-10T11:50:38.560Z,22.97
2018-04-10T11:51:38.548Z,22.92
2018-04-10T11:52:38.537Z,22.90
2018-04-10T11:53:38.555Z,23.09
2018-04-10T11:54:38.586Z,23.22
2018-04-10T11:55:38.530Z,23.17
2018-04-10T11:56:38.546Z,23.00
2018-04-10T11:57:38.536Z,22.85
2018-04-10T11:58:38.558Z,22.85
2018-04-10T11:59:38.565Z,22.86
2018-04-10T12:00:38.542Z,22.83
2018-04-10T12:01:38.538Z,22.94
2018-04-10T12:02:38.566Z,22.94
2018-04-10T12:03:38.609Z,23.10
2018-04-10T12:04:38.558Z,23.15
2018-04-10T12:05:38.547Z,23.39
2018-04-10T12:06:38.569Z,23.78
2018-04-10T12:07:38.551Z,24.20
2018-04-10T12:08:38.563Z,24.49
2018-04-10T12:09:38.586Z,24.84
2018-04-10T12:10:38.566Z,25.02
2018-04-10T12:11:38.557Z,25.08
2018-04-10T12:12:38.579Z,25.17
2018-04-10T12:13:38.566Z,25.09
2018-04-10T12:14:38.651Z,25.14
2018-04-10T12:15:38.597Z,25.09
2018-04-10T12:16:38.590Z,25.14
2018-04-10T12:17:38.596Z,25.20
2018-04-10T12:18:38.588Z,25.35
2018-04-10T12:19:38.602Z,25.46
2018-04-10T12:20:38.615Z,25.67
2018-04-10T12:21:38.611Z,25.76
2018-04-10T12:22:38.618Z,26.15
2018-04-10T12:23:38.611Z,26.30
2018-04-10T12:24:38.625Z,26.18
2018-04-10T12:25:38.985Z,26.07
2018-04-10T12:26:38.626Z,25.85
2018-04-10T12:27:38.630Z,25.82
2018-04-10T12:28:38.655Z,25.64
2018-04-10T12:29:38.644Z,25.83
2018-04-10T12:30:38.698Z,25.99
2018-04-10T12:31:38.721Z,26.15
2018-04-10T12:32:38.653Z,26.17
2018-04-10T12:33:38.672Z,26.12
2018-04-10T12:34:38.688Z,26.13
2018-04-10T12:35:38.676Z,26.12
2018-04-10T12:36:38.739Z,26.28
2018-04-10T12:37:38.712Z,26.63
2018-04-10T12:38:38.700Z,26.88
2018-04-10T12:39:38.770Z,27.18
2018-04-10T12:40:38.710Z,27.21
2018-04-10T12:41:38.718Z,26.99
2018-04-10T12:42:38.744Z,27.03
2018-04-10T12:43:38.743Z,27.25
2018-04-10T12:44:38.742Z,27.51
2018-04-10T12:45:38.752Z,27.72
2018-04-10T12:46:38.789Z,27.75
2018-04-10T12:47:38.776Z,27.62
2018-04-10T12:48:38.764Z,27.24
2018-04-10T12:49:38.789Z,27.03
2018-04-10T12:50:38.778Z,26.57
2018-04-10T12:51:39.013Z,26.29
2018-04-10T12:52:38.797Z,25.97